Time;durP1;ratioP1;P1;durP2;ratioP2;P2;SDS_P1;SDS_P2;PMS_P1;PMS_P2;Temp;Humidity;BMP_temperature;BMP_pressure;BME280_temperature;BME280_humidity;BME280_pressure;Samples;Min_cycle;Max_cycle;Signal;HPM_P1;HPM_P2
2021/01/09 00:00:06;;;;;;;11.98;9.20;;;7.50;65.10;;;;;;4997167;28;20022;-76
2021/01/09 00:02:32;;;;;;;12.63;9.43;;;7.60;65.30;;;;;;4997415;28;20032;-77
2021/01/09 00:04:57;;;;;;;12.45;8.98;;;7.50;64.90;;;;;;4997032;28;20480;-74
2021/01/09 00:07:23;;;;;;;14.20;9.20;;;7.40;65.20;;;;;;4997088;28;20547;-79
2021/01/09 00:09:48;;;;;;;12.20;9.05;;;7.40;65.30;;;;;;4997204;28;20510;-76
2021/01/09 00:12:14;;;;;;;13.25;9.40;;;7.40;65.40;;;;;;4996872;28;20578;-76
2021/01/09 00:14:40;;;;;;;15.52;10.23;;;7.30;65.20;;;;;;4997553;28;20423;-73
2021/01/09 00:17:06;;;;;;;13.10;9.18;;;7.30;65.40;;;;;;4998015;28;20033;-76
2021/01/09 00:19:33;;;;;;;12.30;9.50;;;7.30;65.40;;;;;;4997466;28;20034;-75
2021/01/09 00:21:58;;;;;;;13.27;9.18;;;7.20;65.40;;;;;;4996910;28;20089;-72
2021/01/09 00:24:24;;;;;;;13.65;8.93;;;7.30;65.70;;;;;;4996826;28;20026;-74
2021/01/09 00:26:50;;;;;;;13.18;8.98;;;7.30;65.50;;;;;;4996802;28;20034;-76
2021/01/09 00:29:15;;;;;;;12.00;9.05;;;7.30;65.70;;;;;;4996678;28;20056;-75
2021/01/09 00:31:41;;;;;;;12.45;8.98;;;7.30;65.40;;;;;;4996590;28;20492;-75
2021/01/09 00:34:07;;;;;;;12.45;9.32;;;7.30;65.60;;;;;;4996617;28;20045;-75
2021/01/09 00:36:35;;;;;;;12.35;9.18;;;7.30;65.60;;;;;;4996770;28;20379;-74
2021/01/09 00:39:03;;;;;;;12.60;8.45;;;7.40;65.60;;;;;;4996648;28;20080;-75
2021/01/09 00:41:30;;;;;;;12.63;8.48;;;7.40;65.20;;;;;;4995454;28;20444;-76
2021/01/09 00:43:57;;;;;;;12.73;9.02;;;7.50;65.20;;;;;;4996796;28;20030;-75
2021/01/09 00:46:23;;;;;;;12.73;8.82;;;7.50;65.00;;;;;;4995688;28;20065;-76
2021/01/09 00:48:49;;;;;;;12.63;8.63;;;7.50;64.80;;;;;;4996705;28;20022;-76
2021/01/09 00:51:16;;;;;;;12.25;7.63;;;7.50;64.70;;;;;;4995153;28;20488;-76
2021/01/09 00:53:41;;;;;;;11.77;8.02;;;7.50;64.90;;;;;;4996560;28;20479;-75
2021/01/09 00:56:08;;;;;;;12.40;8.13;;;7.50;64.70;;;;;;4996436;28;20166;-76
2021/01/09 00:58:35;;;;;;;14.25;9.05;;;7.60;64.60;;;;;;4996456;28;20030;-76
2021/01/09 01:01:01;;;;;;;13.48;8.05;;;7.50;64.60;;;;;;4994995;28;20034;-76
2021/01/09 01:03:27;;;;;;;11.73;7.95;;;7.60;64.50;;;;;;4996298;28;20050;-76
2021/01/09 01:05:54;;;;;;;11.70;8.25;;;7.60;64.30;;;;;;4996060;28;20484;-75
2021/01/09 01:08:20;;;;;;;11.52;8.02;;;7.50;64.20;;;;;;4996051;28;20026;-74
2021/01/09 01:10:47;;;;;;;11.02;8.10;;;7.50;64.50;;;;;;5051119;22;20136;-69
2021/01/09 01:13:13;;;;;;;12.68;7.70;;;7.50;64.00;;;;;;5075320;28;20032;-70
2021/01/09 01:15:39;;;;;;;12.60;7.72;;;7.40;64.00;;;;;;5074949;28;20024;-69
2021/01/09 01:18:05;;;;;;;12.20;8.18;;;7.30;64.40;;;;;;5075045;28;20025;-69
2021/01/09 01:20:30;;;;;;;11.98;7.97;;;7.30;64.20;;;;;;5073687;28;20059;-70
2021/01/09 01:22:56;;;;;;;11.52;8.25;;;7.30;64.30;;;;;;5075087;28;20027;-68
2021/01/09 01:25:22;;;;;;;14.75;8.80;;;7.30;64.30;;;;;;5073397;28;20096;-70
2021/01/09 01:27:47;;;;;;;11.60;8.27;;;7.30;64.00;;;;;;5074652;28;20538;-70
2021/01/09 01:30:13;;;;;;;12.05;8.65;;;7.30;64.00;;;;;;5074729;28;20029;-70
2021/01/09 01:32:39;;;;;;;12.15;7.97;;;7.30;64.30;;;;;;5074661;28;20567;-70
2021/01/09 01:35:05;;;;;;;12.18;8.30;;;7.30;64.20;;;;;;5074570;28;20020;-70
2021/01/09 01:37:31;;;;;;;11.57;8.10;;;7.40;64.20;;;;;;5073100;28;20033;-70
2021/01/09 01:39:57;;;;;;;12.60;8.50;;;7.20;63.80;;;;;;5074528;28;20035;-70
2021/01/09 01:42:23;;;;;;;13.90;7.78;;;7.30;64.30;;;;;;5074819;28;20461;-69
2021/01/09 01:44:49;;;;;;;12.23;8.30;;;7.30;64.30;;;;;;5074200;28;20032;-71
2021/01/09 01:47:17;;;;;;;12.63;8.75;;;7.20;64.80;;;;;;5074371;28;20038;-70
2021/01/09 01:49:45;;;;;;;16.02;9.00;;;7.10;64.40;;;;;;5073975;28;20032;-69
2021/01/09 01:52:13;;;;;;;11.88;8.27;;;7.10;64.20;;;;;;5074233;28;20081;-71
2021/01/09 01:54:39;;;;;;;13.27;8.63;;;7.00;64.40;;;;;;5073929;28;20509;-71
2021/01/09 01:57:07;;;;;;;13.70;9.02;;;7.00;64.50;;;;;;5073133;28;20099;-70
2021/01/09 01:59:33;;;;;;;11.00;8.48;;;7.10;64.50;;;;;;5073600;28;20031;-69
2021/01/09 02:02:03;;;;;;;12.35;8.48;;;7.10;64.50;;;;;;5073648;28;20103;-70
2021/01/09 02:04:28;;;;;;;13.15;9.52;;;7.00;64.50;;;;;;5073895;28;20051;-71
2021/01/09 02:06:57;;;;;;;13.82;9.27;;;7.00;64.40;;;;;;5073714;28;20056;-69
2021/01/09 02:09:26;;;;;;;14.18;8.68;;;7.00;64.50;;;;;;5073812;28;20085;-70
2021/01/09 02:12:04;;;;;;;12.25;8.90;;;7.00;64.60;;;;;;5073434;28;20048;-72
2021/01/09 02:14:40;;;;;;;13.70;8.68;;;7.00;64.70;;;;;;5073870;28;20050;-70
2021/01/09 02:17:07;;;;;;;13.30;8.73;;;7.10;65.00;;;;;;5073528;28;20477;-70
2021/01/09 02:19:37;;;;;;;12.55;8.25;;;7.10;64.40;;;;;;5073281;28;20031;-70
2021/01/09 02:22:05;;;;;;;14.40;9.00;;;6.90;64.20;;;;;;5073572;28;20032;-70
2021/01/09 02:24:31;;;;;;;11.68;8.82;;;6.90;64.40;;;;;;5073326;28;20086;-70
2021/01/09 02:26:57;;;;;;;12.88;8.93;;;7.10;64.70;;;;;;5073754;28;20016;-69
2021/01/09 02:29:24;;;;;;;12.40;8.73;;;7.00;64.20;;;;;;5073467;28;20078;-70
2021/01/09 02:32:10;;;;;;;11.60;8.60;;;7.00;64.40;;;;;;5073638;28;20028;-71
2021/01/09 02:34:48;;;;;;;15.43;8.70;;;7.00;64.30;;;;;;5073128;28;20089;-71
2021/01/09 02:37:14;;;;;;;12.07;8.30;;;7.00;64.20;;;;;;5073273;28;20024;-70
2021/01/09 02:39:40;;;;;;;12.18;8.57;;;7.00;64.40;;;;;;5073615;28;20082;-70
2021/01/09 02:42:07;;;;;;;11.55;8.10;;;7.10;64.30;;;;;;5073540;28;20021;-70
2021/01/09 02:44:34;;;;;;;12.27;8.73;;;7.10;64.00;;;;;;5073046;28;20542;-70
2021/01/09 02:47:00;;;;;;;11.73;8.30;;;7.00;64.60;;;;;;5073250;28;20052;-70
2021/01/09 02:49:25;;;;;;;12.27;8.15;;;7.00;64.20;;;;;;5072211;28;20493;-70
2021/01/09 02:51:51;;;;;;;13.90;8.52;;;7.00;64.50;;;;;;5073212;28;20020;-73
2021/01/09 02:54:17;;;;;;;12.68;8.30;;;7.00;64.30;;;;;;5073304;28;20028;-72
2021/01/09 02:56:42;;;;;;;11.73;8.52;;;7.00;64.30;;;;;;5073189;28;20028;-71
2021/01/09 02:59:08;;;;;;;13.05;8.85;;;7.00;64.30;;;;;;5073050;28;20081;-71
2021/01/09 03:01:34;;;;;;;13.98;8.93;;;6.90;64.30;;;;;;5073166;28;20069;-70
2021/01/09 03:03:59;;;;;;;12.68;8.93;;;7.00;64.10;;;;;;5073204;28;20230;-70
2021/01/09 03:06:26;;;;;;;11.85;8.60;;;6.90;64.30;;;;;;5073119;28;20033;-70
2021/01/09 03:08:52;;;;;;;11.57;8.25;;;6.90;64.40;;;;;;5072668;28;20114;-70
2021/01/09 03:11:18;;;;;;;12.25;8.60;;;6.80;64.40;;;;;;5072726;28;20050;-71
2021/01/09 03:13:45;;;;;;;13.02;8.70;;;6.70;64.50;;;;;;5073034;28;20021;-72
2021/01/09 03:16:10;;;;;;;11.55;8.50;;;6.80;64.80;;;;;;5073296;28;20065;-71
2021/01/09 03:18:36;;;;;;;12.70;8.75;;;6.70;64.70;;;;;;5072910;28;20032;-71
2021/01/09 03:21:03;;;;;;;11.73;8.35;;;6.80;65.00;;;;;;5072954;28;20035;-72
2021/01/09 03:23:28;;;;;;;11.98;8.00;;;6.90;64.90;;;;;;5073175;28;20021;-72
2021/01/09 03:25:54;;;;;;;12.10;8.70;;;7.00;64.70;;;;;;5072749;28;20055;-73
2021/01/09 03:28:20;;;;;;;13.52;8.85;;;7.10;64.30;;;;;;5071531;28;20028;-72
2021/01/09 03:30:46;;;;;;;13.75;8.15;;;7.10;64.40;;;;;;5072725;28;20401;-71
2021/01/09 03:33:11;;;;;;;12.40;8.10;;;7.20;64.50;;;;;;5072692;28;20381;-72
2021/01/09 03:35:37;;;;;;;11.80;8.05;;;7.20;64.00;;;;;;5072901;28;20040;-72
2021/01/09 03:38:03;;;;;;;10.95;7.78;;;7.30;64.10;;;;;;5072631;28;20037;-72
2021/01/09 03:40:28;;;;;;;11.27;8.20;;;7.20;64.00;;;;;;5072706;28;20024;-71
2021/01/09 03:42:54;;;;;;;11.82;7.95;;;7.20;64.40;;;;;;5072816;28;20025;-71
2021/01/09 03:45:20;;;;;;;14.63;8.10;;;7.10;64.20;;;;;;5072706;28;20040;-71
2021/01/09 03:47:45;;;;;;;11.15;7.60;;;7.00;64.50;;;;;;5073388;28;20366;-71
2021/01/09 03:50:11;;;;;;;11.02;7.95;;;7.00;64.50;;;;;;5072594;28;20035;-71
2021/01/09 03:52:37;;;;;;;10.82;7.72;;;7.00;64.60;;;;;;5072779;28;20032;-71
2021/01/09 03:55:03;;;;;;;11.50;8.15;;;7.00;64.40;;;;;;5072457;28;20059;-73
2021/01/09 03:57:29;;;;;;;12.90;8.07;;;6.90;64.90;;;;;;5072694;28;20028;-73
2021/01/09 03:59:55;;;;;;;15.02;8.27;;;7.00;65.00;;;;;;5072501;28;20031;-73
2021/01/09 04:02:20;;;;;;;11.52;7.93;;;7.00;64.60;;;;;;5072730;28;20024;-71
2021/01/09 04:04:46;;;;;;;13.88;8.50;;;6.90;64.50;;;;;;5072401;28;20432;-72
2021/01/09 04:07:12;;;;;;;11.93;7.90;;;7.00;64.80;;;;;;5072443;28;20025;-72
2021/01/09 04:09:38;;;;;;;13.20;8.15;;;7.00;64.60;;;;;;5072200;28;20369;-72
2021/01/09 04:12:04;;;;;;;12.20;7.60;;;7.00;64.20;;;;;;5071219;28;20123;-72
2021/01/09 04:14:30;;;;;;;13.63;9.20;;;7.00;64.30;;;;;;5072343;28;20481;-72
2021/01/09 04:16:55;;;;;;;10.65;7.38;;;7.10;64.30;;;;;;5072682;28;20031;-71
2021/01/09 04:19:21;;;;;;;11.30;7.57;;;7.10;64.20;;;;;;5072375;28;20025;-72
2021/01/09 04:21:54;;;;;;;11.90;7.45;;;7.00;64.30;;;;;;5073889;28;20037;-70
2021/01/09 04:24:24;;;;;;;10.10;6.75;;;7.10;64.30;;;;;;5076200;28;20036;-72
2021/01/09 04:26:57;;;;;;;11.10;6.53;;;7.00;64.50;;;;;;5075938;28;20029;-72
2021/01/09 04:29:23;;;;;;;10.27;6.93;;;7.00;64.60;;;;;;5076027;28;20369;-72
2021/01/09 04:31:49;;;;;;;11.68;7.13;;;7.00;64.50;;;;;;5076006;28;20041;-73
2021/01/09 04:34:16;;;;;;;9.77;6.30;;;7.10;64.50;;;;;;5076009;28;20035;-72
2021/01/09 04:36:42;;;;;;;9.40;6.63;;;7.10;64.10;;;;;;5076026;28;20028;-71
2021/01/09 04:39:08;;;;;;;10.02;6.78;;;7.20;64.20;;;;;;5075838;28;20111;-73
2021/01/09 04:41:35;;;;;;;9.55;6.32;;;7.20;64.10;;;;;;5075995;28;20108;-73
2021/01/09 04:44:03;;;;;;;9.60;6.32;;;7.30;64.00;;;;;;5075840;28;20111;-72
2021/01/09 04:46:31;;;;;;;9.38;6.32;;;7.30;63.80;;;;;;5075643;28;20037;-71
2021/01/09 04:48:57;;;;;;;10.75;6.53;;;7.30;63.60;;;;;;5075660;28;20032;-73
2021/01/09 04:51:24;;;;;;;9.40;6.28;;;7.30;63.60;;;;;;5075726;28;20485;-72
2021/01/09 04:53:52;;;;;;;10.00;6.20;;;7.30;63.60;;;;;;5075693;28;20043;-71
2021/01/09 04:56:19;;;;;;;10.20;7.05;;;7.30;63.70;;;;;;5075468;28;20070;-74
2021/01/09 04:58:44;;;;;;;10.48;6.97;;;7.30;63.90;;;;;;5075338;28;20104;-73
2021/01/09 05:01:11;;;;;;;10.15;6.57;;;7.30;63.60;;;;;;5075272;28;20060;-72
2021/01/09 05:03:37;;;;;;;9.43;6.32;;;7.20;64.00;;;;;;5075541;28;20020;-72
2021/01/09 05:06:02;;;;;;;13.43;6.22;;;7.20;63.50;;;;;;5075531;28;20032;-71
2021/01/09 05:08:28;;;;;;;8.93;6.32;;;7.20;63.60;;;;;;5075597;28;20021;-74
2021/01/09 05:10:55;;;;;;;10.27;6.22;;;7.20;63.70;;;;;;5074978;28;20488;-70
2021/01/09 05:13:23;;;;;;;9.25;5.72;;;7.10;63.60;;;;;;5075494;28;20025;-71
2021/01/09 05:15:53;;;;;;;9.00;6.30;;;7.00;63.90;;;;;;5075305;28;20025;-70
2021/01/09 05:18:19;;;;;;;8.73;5.75;;;7.10;64.20;;;;;;5075194;28;20457;-72
2021/01/09 05:20:45;;;;;;;10.73;6.28;;;7.10;63.90;;;;;;5073429;28;20026;-71
2021/01/09 05:23:11;;;;;;;8.95;5.65;;;7.20;64.10;;;;;;5075101;28;20474;-69
2021/01/09 05:25:37;;;;;;;10.00;6.13;;;7.20;63.80;;;;;;5074950;28;20036;-71
2021/01/09 05:28:05;;;;;;;8.88;5.95;;;7.20;63.80;;;;;;5074860;28;20377;-70
2021/01/09 05:30:32;;;;;;;11.48;5.60;;;7.10;63.70;;;;;;5075056;28;20096;-71
2021/01/09 05:33:00;;;;;;;10.25;5.95;;;7.10;63.60;;;;;;5074585;28;20033;-70
2021/01/09 05:35:28;;;;;;;11.50;5.90;;;7.20;63.60;;;;;;5074691;28;20028;-70
2021/01/09 05:37:54;;;;;;;8.60;5.50;;;7.10;63.80;;;;;;5074861;28;20028;-70
2021/01/09 05:40:20;;;;;;;8.50;5.70;;;7.10;63.60;;;;;;5073203;28;20028;-70
2021/01/09 05:42:46;;;;;;;10.20;6.03;;;7.10;63.80;;;;;;5074689;28;20469;-71
2021/01/09 05:45:13;;;;;;;8.98;5.65;;;7.20;63.80;;;;;;5079066;28;20045;-69
2021/01/09 05:47:39;;;;;;;11.23;6.15;;;7.20;63.50;;;;;;5078796;28;20027;-69
2021/01/09 05:50:07;;;;;;;10.45;5.85;;;7.20;63.30;;;;;;5080399;28;20021;-70
2021/01/09 05:52:40;;;;;;;9.43;6.20;;;7.20;63.70;;;;;;5080410;28;20303;-70
2021/01/09 05:55:07;;;;;;;6.83;4.07;;;7.20;63.50;;;;;;5077233;28;20451;-69
2021/01/09 05:57:34;;;;;;;9.73;5.50;;;7.30;63.40;;;;;;5073184;28;20340;-70
2021/01/09 06:00:05;;;;;;;10.00;5.85;;;7.30;63.70;;;;;;5074336;28;20020;-71
2021/01/09 06:03:01;;;;;;;10.02;6.28;;;7.20;63.70;;;;;;5074073;28;20389;-70
2021/01/09 06:05:39;;;;;;;8.18;5.43;;;7.20;63.80;;;;;;5074012;28;20045;-69
2021/01/09 06:08:07;;;;;;;10.68;5.57;;;7.20;63.40;;;;;;5073982;28;20528;-70
2021/01/09 06:10:36;;;;;;;9.30;6.10;;;7.20;63.50;;;;;;5073703;28;20120;-72
2021/01/09 06:13:02;;;;;;;9.40;5.60;;;7.30;63.20;;;;;;5074030;28;20424;-70
2021/01/09 06:15:30;;;;;;;9.20;6.03;;;7.30;63.40;;;;;;5074058;28;20034;-69
2021/01/09 06:17:59;;;;;;;9.32;5.72;;;7.30;63.10;;;;;;5073937;28;20028;-70
2021/01/09 06:20:25;;;;;;;8.02;5.78;;;7.20;63.10;;;;;;5073737;28;20500;-69
2021/01/09 06:22:53;;;;;;;9.75;5.47;;;7.20;63.20;;;;;;5073668;28;20380;-70
2021/01/09 06:25:20;;;;;;;12.20;6.20;;;7.10;63.40;;;;;;5073506;28;20503;-70
2021/01/09 06:27:49;;;;;;;9.88;5.88;;;7.10;63.60;;;;;;5073820;28;20027;-70
2021/01/09 06:30:19;;;;;;;9.18;5.85;;;7.10;63.20;;;;;;5073844;28;20028;-70
2021/01/09 06:32:54;;;;;;;7.68;5.25;;;7.20;63.60;;;;;;5073594;28;20025;-70
2021/01/09 06:35:21;;;;;;;9.88;6.35;;;7.20;63.30;;;;;;5073452;28;20021;-69
2021/01/09 06:37:46;;;;;;;9.43;6.15;;;7.20;63.30;;;;;;5073321;28;20024;-71
2021/01/09 06:40:16;;;;;;;9.30;5.45;;;7.20;63.30;;;;;;5073334;28;20036;-70
2021/01/09 06:42:43;;;;;;;11.60;6.18;;;7.20;63.10;;;;;;5073259;28;20033;-71
2021/01/09 06:45:09;;;;;;;8.43;5.70;;;7.20;63.10;;;;;;5071649;28;20039;-70
2021/01/09 06:47:35;;;;;;;8.20;5.80;;;7.30;63.30;;;;;;5073438;28;20052;-71
2021/01/09 06:50:24;;;;;;;9.45;5.93;;;7.40;63.10;;;;;;5073332;28;20021;-69
2021/01/09 06:52:52;;;;;;;9.02;5.65;;;7.30;63.10;;;;;;5067599;28;20028;-70
2021/01/09 06:55:36;;;;;;;8.80;5.25;;;7.30;63.30;;;;;;5071816;28;20024;-71
2021/01/09 06:58:08;;;;;;;8.10;5.38;;;7.30;63.10;;;;;;5073279;28;20035;-71
2021/01/09 07:00:36;;;;;;;9.35;6.25;;;7.30;63.50;;;;;;5071550;28;20393;-73
2021/01/09 07:03:15;;;;;;;10.90;5.72;;;7.30;63.00;;;;;;5073197;28;20105;-71
2021/01/09 07:05:51;;;;;;;10.95;6.10;;;7.30;63.30;;;;;;5072977;28;20055;-74
2021/01/09 07:08:25;;;;;;;8.60;5.05;;;7.40;63.10;;;;;;5073175;28;20016;-70
2021/01/09 07:11:02;;;;;;;9.50;5.80;;;7.40;63.10;;;;;;5072742;28;20123;-72
2021/01/09 07:13:28;;;;;;;8.55;5.65;;;7.40;63.30;;;;;;5073127;28;20024;-72
2021/01/09 07:16:10;;;;;;;12.65;6.32;;;7.30;62.90;;;;;;5072686;28;20427;-69
2021/01/09 07:18:50;;;;;;;10.35;5.90;;;7.30;63.30;;;;;;5072964;28;20112;-72
2021/01/09 07:21:20;;;;;;;9.32;6.07;;;7.30;63.50;;;;;;5073229;28;20027;-72
2021/01/09 07:23:50;;;;;;;10.18;6.35;;;7.30;63.40;;;;;;5072861;28;20035;-73
2021/01/09 07:26:17;;;;;;;10.38;5.65;;;7.20;63.40;;;;;;5072516;28;20037;-72
2021/01/09 07:28:46;;;;;;;9.32;6.57;;;7.30;63.60;;;;;;5072834;28;20473;-72
2021/01/09 07:31:13;;;;;;;13.60;7.10;;;7.30;63.60;;;;;;5072829;28;20537;-71
2021/01/09 07:33:42;;;;;;;10.88;6.13;;;7.40;63.50;;;;;;5072960;28;20107;-70
2021/01/09 07:36:12;;;;;;;10.30;6.72;;;7.40;63.60;;;;;;5072773;28;20193;-72
2021/01/09 07:38:47;;;;;;;11.13;7.45;;;7.40;63.50;;;;;;5072900;28;20044;-72
2021/01/09 07:41:37;;;;;;;11.75;7.60;;;7.40;63.60;;;;;;5072535;28;20024;-71
2021/01/09 07:44:16;;;;;;;15.77;7.60;;;7.40;64.00;;;;;;5072478;28;20381;-70
2021/01/09 07:46:56;;;;;;;14.27;6.82;;;7.40;64.00;;;;;;5071266;28;20094;-70
2021/01/09 07:49:30;;;;;;;11.60;6.68;;;7.40;63.50;;;;;;5072941;28;20112;-71
2021/01/09 07:52:06;;;;;;;9.38;6.43;;;7.40;63.40;;;;;;5072197;28;20021;-72
2021/01/09 07:54:40;;;;;;;9.93;6.32;;;7.40;63.40;;;;;;5073253;28;20027;-71
2021/01/09 07:57:26;;;;;;;10.27;6.50;;;7.40;64.00;;;;;;5076407;28;20462;-72
2021/01/09 07:59:54;;;;;;;10.68;5.97;;;7.50;63.50;;;;;;5076431;28;20099;-72
2021/01/09 08:02:27;;;;;;;10.85;6.35;;;7.50;63.50;;;;;;5076627;28;20078;-72
2021/01/09 08:05:07;;;;;;;10.93;6.38;;;7.50;64.20;;;;;;5075989;28;20017;-71
2021/01/09 08:07:41;;;;;;;10.63;6.07;;;7.50;63.90;;;;;;5074819;28;20032;-71
2021/01/09 08:10:19;;;;;;;10.68;6.60;;;7.60;64.00;;;;;;5075944;28;20044;-71
2021/01/09 08:12:46;;;;;;;8.82;5.75;;;7.50;64.00;;;;;;5076208;28;20059;-72
2021/01/09 08:15:13;;;;;;;8.82;6.35;;;7.60;63.70;;;;;;5076111;28;20020;-69
2021/01/09 08:17:40;;;;;;;9.73;6.43;;;7.60;63.80;;;;;;5075964;28;20028;-72
2021/01/09 08:20:11;;;;;;;11.93;6.80;;;7.60;63.80;;;;;;5074395;28;20030;-72
2021/01/09 08:22:38;;;;;;;14.48;7.05;;;7.60;63.80;;;;;;5075977;28;20020;-71
2021/01/09 08:25:08;;;;;;;10.75;6.80;;;7.70;64.10;;;;;;5075482;28;20063;-70
2021/01/09 08:27:44;;;;;;;11.57;6.88;;;7.70;63.70;;;;;;5075701;28;20059;-71
2021/01/09 08:30:15;;;;;;;13.40;7.25;;;7.80;64.30;;;;;;5075353;28;20028;-69
2021/01/09 08:32:41;;;;;;;11.18;6.68;;;7.80;63.90;;;;;;5075735;28;20047;-72
2021/01/09 08:35:08;;;;;;;11.32;6.38;;;7.90;63.90;;;;;;5075428;28;20540;-72
2021/01/09 08:37:34;;;;;;;9.85;6.03;;;7.90;64.00;;;;;;5075585;28;20123;-73
2021/01/09 08:40:10;;;;;;;10.05;6.22;;;7.90;63.50;;;;;;5074015;28;20059;-73
2021/01/09 08:42:36;;;;;;;9.85;6.75;;;7.90;63.60;;;;;;5075410;28;20095;-71
2021/01/09 08:45:03;;;;;;;9.40;6.53;;;7.90;63.60;;;;;;5075234;28;20123;-72
2021/01/09 08:47:28;;;;;;;10.68;6.60;;;7.90;63.60;;;;;;5075354;28;20024;-72
2021/01/09 08:49:57;;;;;;;10.48;6.53;;;7.80;63.70;;;;;;5074089;28;20032;-74
2021/01/09 08:52:25;;;;;;;11.23;6.65;;;7.90;63.70;;;;;;5075149;28;20039;-69
2021/01/09 08:54:54;;;;;;;10.15;6.60;;;7.90;63.60;;;;;;5075198;28;20093;-70
2021/01/09 08:57:20;;;;;;;10.80;6.10;;;7.90;63.70;;;;;;5075354;28;20036;-71
2021/01/09 08:59:47;;;;;;;12.45;7.68;;;7.90;63.60;;;;;;5075094;28;20036;-71
2021/01/09 09:02:19;;;;;;;11.32;7.20;;;7.90;63.50;;;;;;5075757;28;20147;-73
2021/01/09 09:04:47;;;;;;;9.80;6.68;;;7.90;63.40;;;;;;5073934;28;20023;-71
2021/01/09 09:07:19;;;;;;;11.95;7.25;;;7.90;63.40;;;;;;5074633;28;20021;-71
2021/01/09 09:09:47;;;;;;;10.93;6.72;;;7.90;63.40;;;;;;5074723;28;20052;-71
2021/01/09 09:12:22;;;;;;;9.40;6.35;;;7.90;63.50;;;;;;5074915;28;20025;-71
2021/01/09 09:14:54;;;;;;;11.48;6.00;;;8.00;63.40;;;;;;5074812;28;20028;-73
2021/01/09 09:17:20;;;;;;;8.93;5.50;;;8.00;63.40;;;;;;5073223;28;20119;-73
2021/01/09 09:19:46;;;;;;;9.18;5.97;;;8.10;63.40;;;;;;5074771;28;20048;-72
2021/01/09 09:22:11;;;;;;;8.70;5.40;;;8.10;63.00;;;;;;5075289;28;20485;-74
2021/01/09 09:24:45;;;;;;;9.38;6.10;;;8.20;63.20;;;;;;5073793;28;20032;-74
2021/01/09 09:27:29;;;;;;;9.05;5.68;;;8.20;63.10;;;;;;5074890;28;20067;-72
2021/01/09 09:30:13;;;;;;;10.18;5.95;;;8.30;62.90;;;;;;5074448;28;20028;-73
2021/01/09 09:32:43;;;;;;;7.75;5.10;;;8.30;62.70;;;;;;5072944;28;20028;-73
2021/01/09 09:35:26;;;;;;;10.77;5.47;;;8.30;62.50;;;;;;5072543;28;20123;-72
2021/01/09 09:37:54;;;;;;;10.77;6.07;;;8.30;62.60;;;;;;5073889;28;20035;-73
2021/01/09 09:40:28;;;;;;;12.13;5.65;;;8.30;62.50;;;;;;5074043;28;20025;-71
2021/01/09 09:42:54;;;;;;;12.88;6.03;;;8.40;62.80;;;;;;5072710;28;20047;-71
2021/01/09 09:45:20;;;;;;;10.70;5.68;;;8.30;62.50;;;;;;5074035;28;20485;-73
2021/01/09 09:47:50;;;;;;;12.50;6.00;;;8.30;62.80;;;;;;5073919;28;20021;-71
2021/01/09 09:50:20;;;;;;;11.05;5.95;;;8.30;62.80;;;;;;5073356;28;20035;-72
2021/01/09 09:53:06;;;;;;;11.93;5.65;;;8.40;62.90;;;;;;5073903;28;20021;-73
2021/01/09 09:55:32;;;;;;;9.65;5.47;;;8.30;62.60;;;;;;5073544;28;20120;-71
2021/01/09 09:58:09;;;;;;;8.65;5.70;;;8.30;62.80;;;;;;5072187;28;20031;-73
2021/01/09 10:00:44;;;;;;;9.35;5.68;;;8.40;63.10;;;;;;5071992;28;20031;-72
2021/01/09 10:03:10;;;;;;;12.55;6.13;;;8.40;63.00;;;;;;5073901;28;20039;-72
2021/01/09 10:05:36;;;;;;;8.73;5.57;;;8.40;63.10;;;;;;5073699;28;20493;-74
2021/01/09 10:08:13;;;;;;;11.05;5.95;;;8.40;63.10;;;;;;5073507;28;20033;-72
2021/01/09 10:10:39;;;;;;;10.23;5.95;;;8.30;63.40;;;;;;5073451;28;20059;-72
2021/01/09 10:13:05;;;;;;;10.95;6.57;;;8.30;63.90;;;;;;5073553;28;20445;-73
2021/01/09 10:15:30;;;;;;;10.95;6.80;;;8.30;64.00;;;;;;5073306;28;20039;-72
2021/01/09 10:17:59;;;;;;;15.35;7.13;;;8.20;64.50;;;;;;5072726;28;20020;-73
2021/01/09 10:20:25;;;;;;;12.25;6.93;;;8.30;64.90;;;;;;5071571;28;20122;-72
2021/01/09 10:22:51;;;;;;;10.20;7.18;;;8.40;65.00;;;;;;5073256;28;20029;-72
2021/01/09 10:25:16;;;;;;;10.57;6.78;;;8.40;65.40;;;;;;5072992;28;20063;-73
2021/01/09 10:27:42;;;;;;;11.85;7.32;;;8.50;65.50;;;;;;5071964;28;20509;-72
2021/01/09 10:30:09;;;;;;;10.85;6.97;;;8.50;65.60;;;;;;5071776;28;20028;-70
2021/01/09 10:32:34;;;;;;;13.50;7.47;;;8.50;65.70;;;;;;5071985;28;20119;-74
2021/01/09 10:35:00;;;;;;;11.05;7.55;;;8.60;66.10;;;;;;5073173;28;20063;-72
2021/01/09 10:37:26;;;;;;;14.25;7.35;;;8.50;66.00;;;;;;5072861;28;20488;-73
2021/01/09 10:39:51;;;;;;;10.68;6.95;;;8.40;66.30;;;;;;5072954;28;20028;-72
2021/01/09 10:42:17;;;;;;;14.30;7.30;;;8.40;66.50;;;;;;5072867;28;20469;-72
2021/01/09 10:44:43;;;;;;;10.82;6.70;;;8.40;66.90;;;;;;5072098;28;20481;-71
2021/01/09 10:47:08;;;;;;;12.05;7.03;;;8.30;66.80;;;;;;5073158;28;20512;-73
2021/01/09 10:49:34;;;;;;;11.23;6.80;;;8.10;67.20;;;;;;5072679;28;20031;-74
2021/01/09 10:52:00;;;;;;;13.35;8.18;;;8.20;67.60;;;;;;5072878;28;20078;-72
2021/01/09 10:54:26;;;;;;;9.80;6.60;;;8.10;67.20;;;;;;5071678;28;20028;-72
2021/01/09 10:56:52;;;;;;;9.98;6.53;;;8.10;67.60;;;;;;5072832;28;20551;-73
2021/01/09 10:59:17;;;;;;;11.63;7.45;;;8.00;68.20;;;;;;5073051;28;20040;-71
2021/01/09 11:01:43;;;;;;;12.50;7.22;;;8.00;67.70;;;;;;5072964;28;20024;-70
2021/01/09 11:04:09;;;;;;;14.68;7.30;;;8.00;68.10;;;;;;5073160;28;20081;-70
2021/01/09 11:06:34;;;;;;;10.63;7.20;;;7.90;68.00;;;;;;5072731;28;20040;-72
2021/01/09 11:09:00;;;;;;;12.50;7.18;;;7.90;67.90;;;;;;5072707;28;20052;-71
2021/01/09 11:11:27;;;;;;;14.25;6.93;;;7.80;67.80;;;;;;5072606;28;20044;-73
2021/01/09 11:13:52;;;;;;;11.88;7.70;;;7.70;67.90;;;;;;5072607;28;20029;-72
2021/01/09 11:16:19;;;;;;;10.82;7.53;;;7.70;68.50;;;;;;5073024;28;20036;-72
2021/01/09 11:18:46;;;;;;;11.13;6.95;;;7.80;68.70;;;;;;5072479;28;20021;-72
2021/01/09 11:21:11;;;;;;;12.43;7.80;;;7.80;68.90;;;;;;5072648;28;20522;-72
2021/01/09 11:23:37;;;;;;;12.77;8.15;;;7.90;68.60;;;;;;5072454;28;20025;-71
2021/01/09 11:26:03;;;;;;;12.02;7.47;;;7.90;68.50;;;;;;5072318;28;20115;-73
2021/01/09 11:28:28;;;;;;;13.95;7.90;;;7.90;69.00;;;;;;5072785;28;20056;-71
2021/01/09 11:30:54;;;;;;;12.82;7.85;;;7.90;69.00;;;;;;5077670;28;20032;-72
2021/01/09 11:33:20;;;;;;;11.20;8.05;;;8.00;69.60;;;;;;5079196;28;20033;-73
2021/01/09 11:35:47;;;;;;;13.88;8.05;;;8.10;69.40;;;;;;5078928;28;20055;-73
2021/01/09 11:38:12;;;;;;;14.07;8.10;;;8.10;69.50;;;;;;5079084;28;20020;-70
2021/01/09 11:40:38;;;;;;;12.45;8.10;;;8.20;69.50;;;;;;5078991;28;20082;-72
2021/01/09 11:43:04;;;;;;;11.70;8.02;;;8.20;69.30;;;;;;5078122;28;20377;-72
2021/01/09 11:45:29;;;;;;;12.32;7.85;;;8.10;69.50;;;;;;5078015;28;20039;-72
2021/01/09 11:47:55;;;;;;;11.38;7.55;;;8.10;69.40;;;;;;5079131;28;20020;-73
2021/01/09 11:50:21;;;;;;;11.88;8.13;;;8.10;69.50;;;;;;5077411;28;20024;-71
2021/01/09 11:52:46;;;;;;;14.05;8.35;;;8.10;69.70;;;;;;5077491;28;20098;-72
2021/01/09 11:55:12;;;;;;;14.35;8.30;;;8.10;69.50;;;;;;5077470;28;20025;-72
2021/01/09 11:57:38;;;;;;;12.73;8.07;;;8.10;69.90;;;;;;5078777;28;20101;-72
2021/01/09 12:00:09;;;;;;;12.48;8.52;;;8.10;69.50;;;;;;5077443;28;20187;-73
2021/01/09 12:02:34;;;;;;;14.93;9.02;;;8.20;69.90;;;;;;5078842;28;20024;-71
2021/01/09 12:05:00;;;;;;;14.85;8.57;;;8.30;69.70;;;;;;5078807;28;20385;-72
2021/01/09 12:07:26;;;;;;;13.73;8.75;;;8.40;69.80;;;;;;5078508;28;20103;-71
2021/01/09 12:09:51;;;;;;;11.73;8.65;;;8.40;69.50;;;;;;5077190;28;20094;-71
2021/01/09 12:12:17;;;;;;;16.13;7.80;;;8.50;69.50;;;;;;5078600;28;20074;-73
2021/01/09 12:14:42;;;;;;;13.88;8.93;;;8.50;69.70;;;;;;5077166;28;20029;-72
2021/01/09 12:17:08;;;;;;;13.45;9.00;;;8.60;69.70;;;;;;5077357;28;20059;-71
2021/01/09 12:19:34;;;;;;;14.48;9.00;;;8.60;70.00;;;;;;5078504;28;20028;-74
2021/01/09 12:21:59;;;;;;;15.73;9.35;;;8.60;69.80;;;;;;5077310;28;20029;-73
2021/01/09 12:24:26;;;;;;;18.42;8.65;;;8.60;69.80;;;;;;5078921;28;20035;-70
2021/01/09 12:26:55;;;;;;;14.43;8.40;;;8.60;70.10;;;;;;5078580;28;20059;-70
2021/01/09 12:29:21;;;;;;;11.45;8.27;;;8.60;70.40;;;;;;5077373;28;20082;-73
2021/01/09 12:31:47;;;;;;;11.20;8.05;;;8.60;69.80;;;;;;5078905;28;20024;-73
2021/01/09 12:34:14;;;;;;;12.82;8.98;;;8.60;69.80;;;;;;5078700;28;20414;-74
2021/01/09 12:36:40;;;;;;;12.13;8.50;;;8.50;70.10;;;;;;5079043;28;20116;-73
2021/01/09 12:39:06;;;;;;;11.15;8.77;;;8.50;70.10;;;;;;5078550;28;20103;-71
2021/01/09 12:41:36;;;;;;;12.45;9.05;;;8.60;70.50;;;;;;5075071;28;20054;-71
2021/01/09 12:44:03;;;;;;;14.43;9.77;;;8.60;70.70;;;;;;5075776;28;20036;-72
2021/01/09 12:46:46;;;;;;;13.90;9.73;;;8.60;70.30;;;;;;5075748;28;20119;-70
2021/01/09 12:49:17;;;;;;;12.07;8.55;;;8.70;71.10;;;;;;5073718;28;20068;-71
2021/01/09 12:51:43;;;;;;;12.60;8.43;;;8.70;70.50;;;;;;5075317;28;20024;-71